Terminal Aerodrome Forecast
Issued by NWS

Current Version | Previous Version | Text Only | Print | Product List | Glossary On
Versions: 1 2 3 4 5 6 7 8 9 10 11 12 13
587
FTUS42 KMLB 250554
TAFSUA
TAF
KSUA 250554Z 2506/2606 09007KT P6SM FEW070 SCT250
     FM251500 07015KT P6SM SCT035
     FM260100 09006KT P6SM SKC=

USA.gov is the U.S. government's official web portal to all federal, state and local government web resources and services.